sensor_id;sensor_type;location;lat;lon;timestamp;pressure;altitude;pressure_sealevel;temperature;humidity
44359;BME280;30077;52.474;13.326;2022-07-29T00:04:24;101305.00;;;16.90;61.41
44359;BME280;30077;52.474;13.326;2022-07-29T00:09:25;101304.50;;;16.83;61.95
44359;BME280;30077;52.474;13.326;2022-07-29T00:14:25;101320.16;;;16.76;62.28
44359;BME280;30077;52.474;13.326;2022-07-29T00:19:25;101305.13;;;16.72;62.79
44359;BME280;30077;52.474;13.326;2022-07-29T00:24:26;101286.63;;;16.66;63.44
44359;BME280;30077;52.474;13.326;2022-07-29T00:29:26;101301.25;;;16.62;63.92
44359;BME280;30077;52.474;13.326;2022-07-29T00:34:26;101291.72;;;16.56;64.35
44359;BME280;30077;52.474;13.326;2022-07-29T00:39:45;101294.88;;;16.49;64.86
44359;BME280;30077;52.474;13.326;2022-07-29T00:44:45;101292.44;;;16.44;65.24
44359;BME280;30077;52.474;13.326;2022-07-29T00:49:46;101293.69;;;16.39;65.83
44359;BME280;30077;52.474;13.326;2022-07-29T00:54:46;101283.28;;;16.32;66.50
44359;BME280;30077;52.474;13.326;2022-07-29T00:59:47;101281.72;;;16.28;66.90
44359;BME280;30077;52.474;13.326;2022-07-29T01:04:48;101283.81;;;16.23;67.36
44359;BME280;30077;52.474;13.326;2022-07-29T01:09:48;101280.34;;;16.21;67.61
44359;BME280;30077;52.474;13.326;2022-07-29T01:14:49;101276.69;;;16.22;67.91
44359;BME280;30077;52.474;13.326;2022-07-29T01:20:15;101268.78;;;16.19;68.05
44359;BME280;30077;52.474;13.326;2022-07-29T01:25:46;101252.63;;;16.19;68.40
44359;BME280;30077;52.474;13.326;2022-07-29T01:30:50;101248.22;;;16.18;68.56
44359;BME280;30077;52.474;13.326;2022-07-29T01:35:51;101230.34;;;16.17;68.69
44359;BME280;30077;52.474;13.326;2022-07-29T01:41:03;101218.97;;;16.12;69.03
44359;BME280;30077;52.474;13.326;2022-07-29T01:46:09;101207.63;;;16.07;69.37
44359;BME280;30077;52.474;13.326;2022-07-29T01:51:18;101195.47;;;16.00;69.77
44359;BME280;30077;52.474;13.326;2022-07-29T01:56:19;101199.47;;;15.93;70.22
44359;BME280;30077;52.474;13.326;2022-07-29T02:01:21;101196.22;;;15.87;70.29
44359;BME280;30077;52.474;13.326;2022-07-29T02:06:23;101185.78;;;15.81;70.83
44359;BME280;30077;52.474;13.326;2022-07-29T02:11:24;101188.59;;;15.80;70.93
44359;BME280;30077;52.474;13.326;2022-07-29T02:16:26;101197.88;;;15.74;71.33
44359;BME280;30077;52.474;13.326;2022-07-29T02:21:29;101202.47;;;15.72;71.41
44359;BME280;30077;52.474;13.326;2022-07-29T02:26:32;101208.97;;;15.68;71.64
44359;BME280;30077;52.474;13.326;2022-07-29T02:31:34;101211.84;;;15.65;71.91
44359;BME280;30077;52.474;13.326;2022-07-29T02:36:36;101202.47;;;15.72;71.57
44359;BME280;30077;52.474;13.326;2022-07-29T02:41:52;101199.97;;;15.69;71.84
44359;BME280;30077;52.474;13.326;2022-07-29T02:47:19;101204.28;;;15.72;71.69
44359;BME280;30077;52.474;13.326;2022-07-29T02:52:44;101207.84;;;15.72;71.75
44359;BME280;30077;52.474;13.326;2022-07-29T02:57:51;101196.16;;;15.73;71.35
44359;BME280;30077;52.474;13.326;2022-07-29T03:02:56;101204.03;;;15.76;71.50
44359;BME280;30077;52.474;13.326;2022-07-29T03:08:01;101197.78;;;15.76;71.40
44359;BME280;30077;52.474;13.326;2022-07-29T03:13:04;101202.13;;;15.78;71.40
44359;BME280;30077;52.474;13.326;2022-07-29T03:18:05;101193.28;;;15.76;71.46
44359;BME280;30077;52.474;13.326;2022-07-29T03:23:07;101195.19;;;15.74;71.50
44359;BME280;30077;52.474;13.326;2022-07-29T03:28:07;101182.69;;;15.73;71.31
44359;BME280;30077;52.474;13.326;2022-07-29T03:33:08;101181.84;;;15.73;71.27
44359;BME280;30077;52.474;13.326;2022-07-29T03:38:09;101183.72;;;15.71;71.36
44359;BME280;30077;52.474;13.326;2022-07-29T03:43:09;101174.00;;;15.68;71.58
44359;BME280;30077;52.474;13.326;2022-07-29T03:48:14;101167.03;;;15.64;71.51
44359;BME280;30077;52.474;13.326;2022-07-29T03:53:15;101165.94;;;15.68;71.55
44359;BME280;30077;52.474;13.326;2022-07-29T03:58:15;101178.25;;;15.72;71.24
44359;BME280;30077;52.474;13.326;2022-07-29T04:03:16;101172.84;;;16.18;71.13
44359;BME280;30077;52.474;13.326;2022-07-29T04:08:16;101173.66;;;16.34;69.80
44359;BME280;30077;52.474;13.326;2022-07-29T04:13:17;101184.47;;;16.63;68.49
44359;BME280;30077;52.474;13.326;2022-07-29T04:18:17;101192.94;;;16.71;68.12
44359;BME280;30077;52.474;13.326;2022-07-29T04:23:17;101195.38;;;16.76;67.74
44359;BME280;30077;52.474;13.326;2022-07-29T04:28:18;101181.03;;;16.90;67.43
44359;BME280;30077;52.474;13.326;2022-07-29T04:33:18;101192.38;;;17.09;66.56
44359;BME280;30077;52.474;13.326;2022-07-29T04:38:18;101186.97;;;16.95;66.32
44359;BME280;30077;52.474;13.326;2022-07-29T04:43:18;101188.44;;;17.00;65.87
44359;BME280;30077;52.474;13.326;2022-07-29T04:48:19;101187.63;;;17.13;65.60
44359;BME280;30077;52.474;13.326;2022-07-29T04:53:19;101194.84;;;17.26;64.89
44359;BME280;30077;52.474;13.326;2022-07-29T04:58:19;101183.88;;;17.29;64.64
44359;BME280;30077;52.474;13.326;2022-07-29T05:03:20;101194.59;;;17.58;63.35
44359;BME280;30077;52.474;13.326;2022-07-29T05:08:20;101194.50;;;17.87;62.03
44359;BME280;30077;52.474;13.326;2022-07-29T05:13:20;101190.72;;;17.89;61.91
44359;BME280;30077;52.474;13.326;2022-07-29T05:18:21;101193.28;;;18.05;61.71
44359;BME280;30077;52.474;13.326;2022-07-29T05:23:21;101198.59;;;18.19;60.85
44359;BME280;30077;52.474;13.326;2022-07-29T05:28:21;101186.16;;;18.29;60.27
44359;BME280;30077;52.474;13.326;2022-07-29T05:33:21;101173.59;;;18.03;60.90
44359;BME280;30077;52.474;13.326;2022-07-29T05:38:22;101180.91;;;18.01;61.07
44359;BME280;30077;52.474;13.326;2022-07-29T05:43:22;101186.78;;;18.08;60.62
44359;BME280;30077;52.474;13.326;2022-07-29T05:48:23;101189.03;;;18.01;61.01
44359;BME280;30077;52.474;13.326;2022-07-29T05:53:23;101185.38;;;18.02;61.22
44359;BME280;30077;52.474;13.326;2022-07-29T05:58:23;101183.56;;;18.41;60.08
44359;BME280;30077;52.474;13.326;2022-07-29T06:03:24;101200.06;;;18.89;58.89
44359;BME280;30077;52.474;13.326;2022-07-29T06:08:24;101192.84;;;19.26;57.74
44359;BME280;30077;52.474;13.326;2022-07-29T06:13:24;101191.53;;;19.32;57.46
44359;BME280;30077;52.474;13.326;2022-07-29T06:18:25;101190.84;;;19.41;57.02
44359;BME280;30077;52.474;13.326;2022-07-29T06:23:25;101188.66;;;19.46;56.97
44359;BME280;30077;52.474;13.326;2022-07-29T06:28:25;101185.50;;;19.15;57.54
44359;BME280;30077;52.474;13.326;2022-07-29T06:33:26;101185.31;;;19.42;57.03
44359;BME280;30077;52.474;13.326;2022-07-29T06:38:26;101183.22;;;19.22;57.44
44359;BME280;30077;52.474;13.326;2022-07-29T06:43:39;101188.44;;;19.49;56.60
44359;BME280;30077;52.474;13.326;2022-07-29T06:48:42;101191.06;;;19.51;56.91
44359;BME280;30077;52.474;13.326;2022-07-29T06:53:42;101200.84;;;19.64;56.55
44359;BME280;30077;52.474;13.326;2022-07-29T06:58:42;101202.31;;;20.05;55.38
44359;BME280;30077;52.474;13.326;2022-07-29T07:03:42;101205.06;;;20.16;55.37
44359;BME280;30077;52.474;13.326;2022-07-29T07:08:43;101198.53;;;20.54;54.15
44359;BME280;30077;52.474;13.326;2022-07-29T07:13:43;101196.00;;;20.40;54.62
44359;BME280;30077;52.474;13.326;2022-07-29T07:18:43;101203.88;;;20.32;55.05
44359;BME280;30077;52.474;13.326;2022-07-29T07:23:45;101197.09;;;20.26;54.81
44359;BME280;30077;52.474;13.326;2022-07-29T07:28:46;101186.41;;;20.47;54.60
44359;BME280;30077;52.474;13.326;2022-07-29T07:33:46;101188.44;;;20.67;55.04
44359;BME280;30077;52.474;13.326;2022-07-29T07:38:46;101187.59;;;21.01;53.59
44359;BME280;30077;52.474;13.326;2022-07-29T07:43:47;101189.69;;;21.08;53.54
44359;BME280;30077;52.474;13.326;2022-07-29T07:48:47;101197.34;;;20.92;53.19
44359;BME280;30077;52.474;13.326;2022-07-29T07:53:47;101178.94;;;21.29;52.22
44359;BME280;30077;52.474;13.326;2022-07-29T07:58:50;101179.66;;;21.31;52.55
44359;BME280;30077;52.474;13.326;2022-07-29T08:03:50;101184.97;;;21.33;51.41
44359;BME280;30077;52.474;13.326;2022-07-29T08:08:51;101178.81;;;21.20;52.12
44359;BME280;30077;52.474;13.326;2022-07-29T08:13:52;101175.25;;;21.19;52.39
44359;BME280;30077;52.474;13.326;2022-07-29T08:18:52;101172.41;;;21.32;52.07
44359;BME280;30077;52.474;13.326;2022-07-29T08:23:56;101168.84;;;21.43;51.93
44359;BME280;30077;52.474;13.326;2022-07-29T08:29:16;101164.84;;;21.58;51.84
44359;BME280;30077;52.474;13.326;2022-07-29T08:34:16;101164.44;;;21.62;50.49
44359;BME280;30077;52.474;13.326;2022-07-29T08:39:17;101157.97;;;21.75;51.10
44359;BME280;30077;52.474;13.326;2022-07-29T08:44:18;101149.47;;;22.00;49.13
44359;BME280;30077;52.474;13.326;2022-07-29T08:49:18;101160.31;;;22.11;48.72
44359;BME280;30077;52.474;13.326;2022-07-29T08:54:19;101157.69;;;21.89;49.24
44359;BME280;30077;52.474;13.326;2022-07-29T08:59:25;101163.84;;;21.91;48.84
44359;BME280;30077;52.474;13.326;2022-07-29T09:04:31;101167.03;;;21.96;49.25
44359;BME280;30077;52.474;13.326;2022-07-29T09:09:34;101164.44;;;22.27;48.01
44359;BME280;30077;52.474;13.326;2022-07-29T09:14:34;101159.34;;;22.85;48.36
44359;BME280;30077;52.474;13.326;2022-07-29T09:19:37;101159.47;;;23.24;46.89
44359;BME280;30077;52.474;13.326;2022-07-29T09:24:43;101151.81;;;23.48;46.40
44359;BME280;30077;52.474;13.326;2022-07-29T09:29:44;101162.00;;;23.46;44.18
44359;BME280;30077;52.474;13.326;2022-07-29T09:34:44;101156.63;;;23.25;44.67
44359;BME280;30077;52.474;13.326;2022-07-29T09:39:44;101143.72;;;23.27;45.34
44359;BME280;30077;52.474;13.326;2022-07-29T09:44:49;101141.78;;;23.59;43.26
44359;BME280;30077;52.474;13.326;2022-07-29T09:49:57;101130.66;;;23.91;42.84
44359;BME280;30077;52.474;13.326;2022-07-29T09:55:06;101127.44;;;24.34;42.52
44359;BME280;30077;52.474;13.326;2022-07-29T10:00:16;101122.44;;;24.20;41.92
44359;BME280;30077;52.474;13.326;2022-07-29T10:05:22;101123.84;;;24.24;41.42
44359;BME280;30077;52.474;13.326;2022-07-29T10:10:25;101128.13;;;24.83;40.46
44359;BME280;30077;52.474;13.326;2022-07-29T10:15:30;101123.78;;;24.63;40.60
44359;BME280;30077;52.474;13.326;2022-07-29T10:20:32;101116.56;;;24.71;39.97
44359;BME280;30077;52.474;13.326;2022-07-29T10:25:32;101115.44;;;24.64;39.46
44359;BME280;30077;52.474;13.326;2022-07-29T10:30:33;101125.47;;;25.11;38.70
44359;BME280;30077;52.474;13.326;2022-07-29T10:46:27;101115.31;;;26.28;34.09
44359;BME280;30077;52.474;13.326;2022-07-29T10:51:54;101110.38;;;26.06;34.47
44359;BME280;30077;52.474;13.326;2022-07-29T11:19:19;101092.97;;;26.59;33.64
44359;BME280;30077;52.474;13.326;2022-07-29T11:24:23;101092.25;;;26.31;34.11
44359;BME280;30077;52.474;13.326;2022-07-29T11:29:23;101098.09;;;26.10;35.17
44359;BME280;30077;52.474;13.326;2022-07-29T11:34:32;101089.59;;;25.77;36.49
44359;BME280;30077;52.474;13.326;2022-07-29T11:39:33;101085.31;;;25.92;36.79
44359;BME280;30077;52.474;13.326;2022-07-29T11:50:01;101071.97;;;25.54;38.48
44359;BME280;30077;52.474;13.326;2022-07-29T11:55:05;101074.53;;;25.55;38.49
44359;BME280;30077;52.474;13.326;2022-07-29T12:00:07;101069.94;;;25.56;38.72
44359;BME280;30077;52.474;13.326;2022-07-29T12:05:12;101059.25;;;25.44;39.16
44359;BME280;30077;52.474;13.326;2022-07-29T12:10:12;101059.00;;;25.56;40.20
44359;BME280;30077;52.474;13.326;2022-07-29T12:15:17;101057.84;;;25.58;40.51
44359;BME280;30077;52.474;13.326;2022-07-29T12:20:28;101048.84;;;25.30;41.29
44359;BME280;30077;52.474;13.326;2022-07-29T12:25:33;101046.13;;;25.12;42.14
44359;BME280;30077;52.474;13.326;2022-07-29T12:30:45;101037.56;;;25.43;42.55
44359;BME280;30077;52.474;13.326;2022-07-29T12:35:51;101039.59;;;26.03;41.04
44359;BME280;30077;52.474;13.326;2022-07-29T12:40:54;101033.31;;;26.36;39.27
44359;BME280;30077;52.474;13.326;2022-07-29T12:45:56;101032.38;;;26.54;39.31
44359;BME280;30077;52.474;13.326;2022-07-29T12:51:01;101034.44;;;26.52;39.31
44359;BME280;30077;52.474;13.326;2022-07-29T12:56:02;101027.03;;;26.18;39.84
44359;BME280;30077;52.474;13.326;2022-07-29T13:01:13;101031.47;;;26.79;39.19
44359;BME280;30077;52.474;13.326;2022-07-29T13:06:35;101019.03;;;27.01;38.56
44359;BME280;30077;52.474;13.326;2022-07-29T13:11:36;101023.56;;;27.27;38.57
44359;BME280;30077;52.474;13.326;2022-07-29T13:22:00;101008.00;;;27.44;37.60
44359;BME280;30077;52.474;13.326;2022-07-29T13:27:01;101008.28;;;27.08;38.68
44359;BME280;30077;52.474;13.326;2022-07-29T13:32:01;101001.66;;;26.68;40.89
44359;BME280;30077;52.474;13.326;2022-07-29T13:37:01;100999.69;;;26.95;40.31
44359;BME280;30077;52.474;13.326;2022-07-29T13:42:02;100998.50;;;26.47;41.59
44359;BME280;30077;52.474;13.326;2022-07-29T13:47:02;100993.25;;;26.27;40.99
44359;BME280;30077;52.474;13.326;2022-07-29T13:52:03;100991.44;;;26.86;39.58
44359;BME280;30077;52.474;13.326;2022-07-29T13:57:04;100986.44;;;27.24;39.30
44359;BME280;30077;52.474;13.326;2022-07-29T14:02:04;100989.09;;;27.00;39.54
44359;BME280;30077;52.474;13.326;2022-07-29T14:07:05;100981.53;;;26.85;42.17
44359;BME280;30077;52.474;13.326;2022-07-29T14:12:06;100970.72;;;26.76;40.00
44359;BME280;30077;52.474;13.326;2022-07-29T14:17:07;100972.38;;;26.60;40.36
44359;BME280;30077;52.474;13.326;2022-07-29T14:22:07;100963.88;;;26.29;40.59
44359;BME280;30077;52.474;13.326;2022-07-29T14:27:08;100962.53;;;26.33;41.21
44359;BME280;30077;52.474;13.326;2022-07-29T14:32:09;100964.06;;;26.36;40.91
44359;BME280;30077;52.474;13.326;2022-07-29T14:37:14;100964.56;;;26.39;39.68
44359;BME280;30077;52.474;13.326;2022-07-29T14:42:15;100946.88;;;26.52;39.91
44359;BME280;30077;52.474;13.326;2022-07-29T14:47:15;100947.63;;;26.70;38.79
44359;BME280;30077;52.474;13.326;2022-07-29T14:52:16;100945.47;;;27.06;37.44
44359;BME280;30077;52.474;13.326;2022-07-29T14:57:16;100941.00;;;26.97;37.71
44359;BME280;30077;52.474;13.326;2022-07-29T15:02:16;100948.34;;;26.97;39.35
44359;BME280;30077;52.474;13.326;2022-07-29T15:07:16;100934.03;;;27.35;37.69
44359;BME280;30077;52.474;13.326;2022-07-29T15:12:17;100935.66;;;26.71;38.55
44359;BME280;30077;52.474;13.326;2022-07-29T15:17:17;100933.94;;;26.70;38.43
44359;BME280;30077;52.474;13.326;2022-07-29T15:22:17;100946.47;;;26.38;42.95
44359;BME280;30077;52.474;13.326;2022-07-29T15:27:18;100941.03;;;26.47;37.81
44359;BME280;30077;52.474;13.326;2022-07-29T15:32:18;100941.63;;;26.32;39.40
44359;BME280;30077;52.474;13.326;2022-07-29T15:37:18;100936.56;;;26.46;39.31
44359;BME280;30077;52.474;13.326;2022-07-29T15:42:18;100922.00;;;27.04;36.95
44359;BME280;30077;52.474;13.326;2022-07-29T15:47:19;100920.13;;;27.04;37.59
44359;BME280;30077;52.474;13.326;2022-07-29T15:52:20;100917.91;;;27.00;37.65
44359;BME280;30077;52.474;13.326;2022-07-29T15:57:21;100920.50;;;27.34;36.63
44359;BME280;30077;52.474;13.326;2022-07-29T16:02:21;100913.44;;;27.07;36.64
44359;BME280;30077;52.474;13.326;2022-07-29T16:07:22;100915.22;;;27.24;37.01
44359;BME280;30077;52.474;13.326;2022-07-29T16:12:22;100909.69;;;27.41;37.33
44359;BME280;30077;52.474;13.326;2022-07-29T16:17:22;100904.22;;;27.16;36.98
44359;BME280;30077;52.474;13.326;2022-07-29T16:22:22;100899.78;;;27.23;37.23
44359;BME280;30077;52.474;13.326;2022-07-29T16:27:23;100894.47;;;27.38;36.68
44359;BME280;30077;52.474;13.326;2022-07-29T16:32:26;100895.66;;;27.19;37.68
44359;BME280;30077;52.474;13.326;2022-07-29T16:37:26;100873.38;;;26.98;39.28
44359;BME280;30077;52.474;13.326;2022-07-29T16:42:32;100890.19;;;27.19;38.11
44359;BME280;30077;52.474;13.326;2022-07-29T16:47:33;100873.78;;;27.27;38.72
44359;BME280;30077;52.474;13.326;2022-07-29T16:52:33;100876.81;;;27.41;38.68
44359;BME280;30077;52.474;13.326;2022-07-29T16:57:33;100872.03;;;26.85;38.08
44359;BME280;30077;52.474;13.326;2022-07-29T17:02:34;100880.19;;;26.61;37.86
44359;BME280;30077;52.474;13.326;2022-07-29T17:07:35;100876.09;;;26.49;39.26
44359;BME280;30077;52.474;13.326;2022-07-29T17:12:37;100881.56;;;26.49;39.26
44359;BME280;30077;52.474;13.326;2022-07-29T17:17:39;100879.53;;;26.59;37.43
44359;BME280;30077;52.474;13.326;2022-07-29T17:22:40;100884.81;;;26.60;37.28
44359;BME280;30077;52.474;13.326;2022-07-29T17:27:40;100877.97;;;26.56;37.63
44359;BME280;30077;52.474;13.326;2022-07-29T17:32:41;100872.88;;;26.11;38.22
44359;BME280;30077;52.474;13.326;2022-07-29T17:37:42;100879.09;;;25.95;38.07
44359;BME280;30077;52.474;13.326;2022-07-29T17:42:42;100883.31;;;25.81;38.20
44359;BME280;30077;52.474;13.326;2022-07-29T17:47:42;100884.78;;;25.76;38.37
44359;BME280;30077;52.474;13.326;2022-07-29T17:52:44;100892.41;;;25.64;38.20
44359;BME280;30077;52.474;13.326;2022-07-29T17:57:44;100883.25;;;25.47;38.64
44359;BME280;30077;52.474;13.326;2022-07-29T18:02:44;100876.53;;;25.41;38.57
44359;BME280;30077;52.474;13.326;2022-07-29T18:07:44;100890.78;;;25.27;39.52
44359;BME280;30077;52.474;13.326;2022-07-29T18:12:44;100889.19;;;25.16;39.12
44359;BME280;30077;52.474;13.326;2022-07-29T18:17:45;100895.56;;;25.07;39.13
44359;BME280;30077;52.474;13.326;2022-07-29T18:22:45;100897.97;;;24.92;39.59
44359;BME280;30077;52.474;13.326;2022-07-29T18:27:45;100891.75;;;24.82;39.46
44359;BME280;30077;52.474;13.326;2022-07-29T18:32:46;100907.63;;;24.69;39.97
44359;BME280;30077;52.474;13.326;2022-07-29T18:37:48;100907.84;;;24.58;40.31
44359;BME280;30077;52.474;13.326;2022-07-29T18:42:48;100906.66;;;24.42;40.36
44359;BME280;30077;52.474;13.326;2022-07-29T18:47:50;100914.44;;;24.37;40.41
44359;BME280;30077;52.474;13.326;2022-07-29T18:52:50;100908.72;;;24.31;40.45
44359;BME280;30077;52.474;13.326;2022-07-29T18:57:51;100926.31;;;24.18;41.09
44359;BME280;30077;52.474;13.326;2022-07-29T19:02:52;100918.63;;;24.04;41.27
44359;BME280;30077;52.474;13.326;2022-07-29T19:07:52;100923.50;;;24.00;41.41
44359;BME280;30077;52.474;13.326;2022-07-29T19:12:53;100918.56;;;23.86;41.57
44359;BME280;30077;52.474;13.326;2022-07-29T19:17:54;100934.06;;;23.76;41.76
44359;BME280;30077;52.474;13.326;2022-07-29T19:22:54;100941.09;;;23.69;42.52
44359;BME280;30077;52.474;13.326;2022-07-29T19:27:54;100947.38;;;23.60;43.40
44359;BME280;30077;52.474;13.326;2022-07-29T19:32:55;100937.69;;;23.47;43.67
44359;BME280;30077;52.474;13.326;2022-07-29T19:37:56;100948.00;;;23.34;43.45
44359;BME280;30077;52.474;13.326;2022-07-29T19:42:57;100950.59;;;23.26;43.13
44359;BME280;30077;52.474;13.326;2022-07-29T19:47:58;100950.19;;;23.21;46.51
44359;BME280;30077;52.474;13.326;2022-07-29T19:52:59;100946.16;;;23.15;45.94
44359;BME280;30077;52.474;13.326;2022-07-29T19:57:59;100948.88;;;23.05;45.30
44359;BME280;30077;52.474;13.326;2022-07-29T20:03:02;100950.91;;;23.03;43.48
44359;BME280;30077;52.474;13.326;2022-07-29T20:08:03;100953.47;;;22.95;43.81
44359;BME280;30077;52.474;13.326;2022-07-29T20:13:05;100941.69;;;22.85;44.32
44359;BME280;30077;52.474;13.326;2022-07-29T20:18:05;100947.25;;;22.74;44.91
44359;BME280;30077;52.474;13.326;2022-07-29T20:23:06;100948.38;;;22.62;44.86
44359;BME280;30077;52.474;13.326;2022-07-29T20:28:06;100949.38;;;22.61;44.72
44359;BME280;30077;52.474;13.326;2022-07-29T20:33:06;100947.66;;;22.59;45.14
44359;BME280;30077;52.474;13.326;2022-07-29T20:38:07;100954.66;;;22.52;45.33
44359;BME280;30077;52.474;13.326;2022-07-29T20:43:07;100958.19;;;22.43;45.55
44359;BME280;30077;52.474;13.326;2022-07-29T20:48:08;100965.66;;;22.41;45.46
44359;BME280;30077;52.474;13.326;2022-07-29T20:53:09;100977.34;;;22.32;47.16
44359;BME280;30077;52.474;13.326;2022-07-29T20:58:10;100972.75;;;22.23;46.26
44359;BME280;30077;52.474;13.326;2022-07-29T21:03:10;100968.22;;;22.12;46.43
44359;BME280;30077;52.474;13.326;2022-07-29T21:08:10;100975.53;;;22.11;46.31
44359;BME280;30077;52.474;13.326;2022-07-29T21:13:10;100970.63;;;22.05;46.84
44359;BME280;30077;52.474;13.326;2022-07-29T21:18:12;100978.31;;;22.00;47.38
44359;BME280;30077;52.474;13.326;2022-07-29T21:23:35;100978.28;;;21.91;47.60
44359;BME280;30077;52.474;13.326;2022-07-29T21:28:36;100976.22;;;21.83;48.66
44359;BME280;30077;52.474;13.326;2022-07-29T21:33:41;100984.91;;;21.77;48.26
44359;BME280;30077;52.474;13.326;2022-07-29T21:38:42;100975.56;;;21.70;48.13
44359;BME280;30077;52.474;13.326;2022-07-29T21:43:42;100974.38;;;21.62;47.95
44359;BME280;30077;52.474;13.326;2022-07-29T21:48:42;100986.25;;;21.61;48.79
44359;BME280;30077;52.474;13.326;2022-07-29T21:53:42;100971.34;;;21.56;48.47
44359;BME280;30077;52.474;13.326;2022-07-29T21:58:45;100974.59;;;21.50;48.08
44359;BME280;30077;52.474;13.326;2022-07-29T22:03:46;100970.81;;;21.41;48.41
44359;BME280;30077;52.474;13.326;2022-07-29T22:08:46;100973.78;;;21.38;48.61
44359;BME280;30077;52.474;13.326;2022-07-29T22:13:46;100970.69;;;21.31;48.67
44359;BME280;30077;52.474;13.326;2022-07-29T22:18:48;100970.84;;;21.30;50.14
44359;BME280;30077;52.474;13.326;2022-07-29T22:23:48;100965.81;;;21.25;49.74
44359;BME280;30077;52.474;13.326;2022-07-29T22:28:49;100962.75;;;21.19;49.07
44359;BME280;30077;52.474;13.326;2022-07-29T22:33:50;100960.53;;;21.12;48.06
44359;BME280;30077;52.474;13.326;2022-07-29T22:38:51;100971.94;;;21.06;48.49
44359;BME280;30077;52.474;13.326;2022-07-29T22:43:51;100956.88;;;21.02;48.67
44359;BME280;30077;52.474;13.326;2022-07-29T22:48:51;100957.41;;;20.96;48.55
44359;BME280;30077;52.474;13.326;2022-07-29T22:53:52;100948.59;;;20.83;48.99
44359;BME280;30077;52.474;13.326;2022-07-29T22:58:52;100940.22;;;20.75;49.08
44359;BME280;30077;52.474;13.326;2022-07-29T23:03:54;100939.75;;;20.70;49.42
44359;BME280;30077;52.474;13.326;2022-07-29T23:08:54;100931.38;;;20.61;49.48
44359;BME280;30077;52.474;13.326;2022-07-29T23:13:54;100938.31;;;20.54;49.77
44359;BME280;30077;52.474;13.326;2022-07-29T23:18:55;100930.16;;;20.43;50.11
44359;BME280;30077;52.474;13.326;2022-07-29T23:23:55;100928.22;;;20.34;51.09
44359;BME280;30077;52.474;13.326;2022-07-29T23:28:55;100935.59;;;20.32;50.62
44359;BME280;30077;52.474;13.326;2022-07-29T23:33:55;100928.25;;;20.23;51.17
44359;BME280;30077;52.474;13.326;2022-07-29T23:38:56;100924.53;;;20.24;51.36
44359;BME280;30077;52.474;13.326;2022-07-29T23:43:57;100931.69;;;20.13;51.57
44359;BME280;30077;52.474;13.326;2022-07-29T23:48:57;100934.88;;;20.07;51.90
44359;BME280;30077;52.474;13.326;2022-07-29T23:53:57;100935.41;;;20.01;52.21
44359;BME280;30077;52.474;13.326;2022-07-29T23:58:58;100930.72;;;19.92;52.48
